Time;durP1;ratioP1;P1;durP2;ratioP2;P2;SDS_P1;SDS_P2;PMS_P1;PMS_P2;Temp;Humidity;BMP_temperature;BMP_pressure;BME280_temperature;BME280_humidity;BME280_pressure;Samples;Min_cycle;Max_cycle;Signal;HPM_P1;HPM_P2
2022/01/01 00:00:27;;;;;;;;;;;9.60;99.90;;;;;;4914112;29;19923;-87
2022/01/01 00:02:53;;;;;;;;;;;9.80;99.90;;;;;;4898157;29;19932;-83
2022/01/01 00:05:28;;;;;;;;;;;9.70;99.90;;;;;;4898682;29;19926;-89
2022/01/01 00:07:53;;;;;;;;;;;9.60;99.90;;;;;;4915445;29;19923;-86
2022/01/01 00:10:20;;;;;;;;;;;9.60;99.90;;;;;;4898719;29;19923;-85
2022/01/01 00:12:47;;;;;;;;;;;9.60;99.90;;;;;;4898720;29;19927;-89
2022/01/01 00:15:13;;;;;;;;;;;9.60;99.90;;;;;;4898065;29;19971;-86
2022/01/01 00:17:39;;;;;;;;;;;9.70;99.90;;;;;;4898813;29;19927;-91
2022/01/01 00:20:05;;;;;;;;;;;9.70;99.90;;;;;;4899026;29;19923;-88
2022/01/01 00:22:30;;;;;;;;;;;9.70;99.90;;;;;;4897137;29;20707;-82
2022/01/01 00:24:56;;;;;;;;;;;9.70;99.90;;;;;;4897616;29;19927;-82
2022/01/01 00:27:22;;;;;;;;;;;9.70;99.90;;;;;;4898711;29;19935;-83
2022/01/01 00:29:47;;;;;;;;;;;9.70;99.90;;;;;;4900282;29;19923;-82
2022/01/01 00:32:13;;;;;;;;;;;9.70;99.90;;;;;;4912914;29;19928;-79
2022/01/01 00:34:38;;;;;;;;;;;10.10;99.90;;;;;;4897560;29;20068;-76
2022/01/01 00:37:05;;;;;;;;;;;9.70;99.90;;;;;;4898165;29;20030;-77
2022/01/01 00:39:30;;;;;;;;;;;9.60;99.90;;;;;;4896578;29;19952;-77
2022/01/01 00:41:56;;;;;;;;;;;9.60;99.90;;;;;;4898524;29;19927;-78
2022/01/01 00:44:21;;;;;;;;;;;9.50;99.90;;;;;;4892533;29;20391;-78
2022/01/01 00:46:47;;;;;;;;;;;9.40;99.90;;;;;;4896122;29;19923;-77
2022/01/01 00:49:12;;;;;;;;;;;9.40;99.90;;;;;;4897064;29;20288;-77
2022/01/01 00:51:38;;;;;;;;;;;9.30;99.90;;;;;;4896930;29;19970;-77
2022/01/01 00:54:03;;;;;;;;;;;9.40;99.90;;;;;;4898661;29;20390;-78
2022/01/01 00:56:29;;;;;;;;;;;9.40;99.90;;;;;;4896584;29;20003;-77
2022/01/01 00:58:57;;;;;;;;;;;9.30;99.90;;;;;;4896873;29;19967;-77
2022/01/01 01:01:23;;;;;;;;;;;9.40;99.90;;;;;;4912623;29;19982;-77
2022/01/01 01:03:50;;;;;;;;;;;9.30;99.90;;;;;;4897616;29;19919;-79
2022/01/01 01:06:15;;;;;;;;;;;9.30;99.90;;;;;;4897889;29;19923;-79
2022/01/01 01:09:01;;;;;;;;;;;9.30;99.90;;;;;;4899288;29;19942;-79
2022/01/01 01:11:27;;;;;;;;;;;9.20;99.90;;;;;;4881932;29;19967;-78
2022/01/01 01:13:58;;;;;;;;;;;9.20;99.90;;;;;;4896476;29;20063;-78
2022/01/01 01:16:25;;;;;;;;;;;9.20;99.90;;;;;;5102688;23;19924;-86
2022/01/01 01:18:53;;;;;;;;;;;9.10;99.90;;;;;;5080359;23;19930;-86
2022/01/01 01:21:31;;;;;;;;;;;9.10;99.90;;;;;;4899736;29;19931;-85
2022/01/01 01:24:09;;;;;;;;;;;8.70;99.90;;;;;;4896134;29;19931;-82
2022/01/01 01:26:47;;;;;;;;;;;9.00;99.90;;;;;;4895993;29;19924;-84
2022/01/01 01:29:12;;;;;;;;;;;9.00;99.90;;;;;;4895552;29;19930;-81
2022/01/01 01:31:38;;;;;;;;;;;8.90;99.90;;;;;;4895988;29;19931;-84
2022/01/01 01:34:04;;;;;;;;;;;8.90;99.90;;;;;;4897176;29;19934;-84
2022/01/01 01:36:30;;;;;;;;;;;8.80;99.90;;;;;;4896666;29;20296;-83
2022/01/01 01:38:56;;;;;;;;;;;8.80;99.90;;;;;;4896960;29;20250;-83
2022/01/01 01:41:23;;;;;;;;;;;8.80;99.90;;;;;;4892193;29;19924;-83
2022/01/01 01:43:51;;;;;;;;;;;8.70;99.90;;;;;;4895078;29;19919;-83
2022/01/01 01:46:21;;;;;;;;;;;8.70;99.90;;;;;;4898879;29;20372;-83
2022/01/01 01:48:52;;;;;;;;;;;8.60;99.90;;;;;;4890154;29;20265;-83
2022/01/01 01:51:23;;;;;;;;;;;8.60;99.90;;;;;;4895259;29;19927;-82
2022/01/01 01:53:49;;;;;;;;;;;8.50;99.90;;;;;;4892281;29;20255;-83
2022/01/01 01:56:17;;;;;;;;;;;8.40;99.90;;;;;;4892721;29;20391;-86
2022/01/01 01:58:43;;;;;;;;;;;8.40;99.90;;;;;;4898554;29;20029;-92
2022/01/01 02:03:38;;;;;;;;;;;8.40;99.90;;;;;;4899990;29;20398;-93
2022/01/01 02:06:06;;;;;;;;;;;8.40;99.90;;;;;;4897564;29;19924;-87
2022/01/01 02:08:32;;;;;;;;;;;8.40;99.90;;;;;;4895211;29;19942;-85
2022/01/01 02:10:58;;;;;;;;;;;8.40;99.90;;;;;;4898198;29;19923;-84
2022/01/01 02:13:30;;;;;;;;;;;8.40;99.90;;;;;;4897840;29;19967;-83
2022/01/01 02:18:21;;;;;;;;;;;8.40;99.90;;;;;;4895091;29;20061;-84
2022/01/01 02:20:50;;;;;;;;;;;8.50;99.90;;;;;;4910783;29;19923;-80
2022/01/01 02:26:25;;;;;;;;;;;8.60;99.90;;;;;;5649649;23;19927;-85
2022/01/01 02:29:16;;;;;;;;;;;9.20;99.90;;;;;;4908743;29;19927;-85
2022/01/01 02:31:41;;;;;;;;;;;8.70;99.90;;;;;;4896320;29;19927;-92
2022/01/01 02:34:08;;;;;;;;;;;8.80;99.90;;;;;;4892738;29;20281;-91
2022/01/01 02:43:26;;;;;;;;;;;7.80;99.90;;;;;;4890865;29;19919;-89
2022/01/01 02:46:20;;;;;;;;;;;9.10;99.90;;;;;;4893567;29;19924;-78
2022/01/01 02:51:29;;;;;;;;;;;8.90;99.90;;;;;;4855687;29;20364;-78
2022/01/01 02:53:55;;;;;;;;;;;9.70;99.90;;;;;;4857692;29;19939;-79
2022/01/01 02:56:20;;;;;;;;;;;8.80;99.90;;;;;;4858186;29;20010;-78
2022/01/01 02:58:46;;;;;;;;;;;8.90;99.90;;;;;;4857709;29;19924;-79
2022/01/01 03:01:11;;;;;;;;;;;10.00;99.90;;;;;;4857914;29;19924;-79
2022/01/01 03:03:37;;;;;;;;;;;8.80;99.90;;;;;;4857926;29;19968;-79
2022/01/01 03:06:03;;;;;;;;;;;8.80;99.90;;;;;;4872969;29;19924;-79
2022/01/01 03:08:28;;;;;;;;;;;8.80;99.90;;;;;;4856290;29;19932;-79
2022/01/01 03:13:29;;;;;;;;;;;8.80;99.90;;;;;;4912601;23;19931;-79
2022/01/01 03:15:55;;;;;;;;;;;8.80;99.90;;;;;;4897096;29;19923;-80
2022/01/01 03:18:21;;;;;;;;;;;8.70;99.90;;;;;;4896926;29;20669;-80
2022/01/01 03:20:46;;;;;;;;;;;8.60;99.90;;;;;;4898654;29;19927;-80
2022/01/01 03:23:12;;;;;;;;;;;8.50;99.90;;;;;;4899200;29;19930;-80
2022/01/01 03:25:37;;;;;;;;;;;8.40;99.90;;;;;;4899599;29;19927;-79
2022/01/01 03:28:04;;;;;;;;;;;8.40;99.90;;;;;;4914844;29;19923;-80
2022/01/01 03:30:29;;;;;;;;;;;8.40;99.90;;;;;;4898106;29;19966;-80
2022/01/01 03:32:55;;;;;;;;;;;8.30;99.90;;;;;;4898613;29;20109;-79
2022/01/01 03:35:20;;;;;;;;;;;8.40;99.90;;;;;;4899509;29;20299;-79
2022/01/01 03:37:46;;;;;;;;;;;8.40;99.90;;;;;;4893776;29;19929;-79
2022/01/01 03:40:11;;;;;;;;;;;8.50;99.90;;;;;;4898037;29;19979;-79
2022/01/01 03:42:37;;;;;;;;;;;8.60;99.90;;;;;;4898829;29;20754;-80
2022/01/01 03:45:03;;;;;;;;;;;8.60;99.90;;;;;;4898336;29;19923;-80
2022/01/01 03:47:31;;;;;;;;;;;8.70;99.90;;;;;;4889273;29;19927;-79
2022/01/01 03:49:56;;;;;;;;;;;8.80;99.90;;;;;;4898406;29;19939;-79
2022/01/01 03:52:22;;;;;;;;;;;9.20;99.90;;;;;;4898418;29;20272;-79
2022/01/01 03:54:47;;;;;;;;;;;8.80;99.90;;;;;;4913638;29;19930;-78
2022/01/01 03:57:13;;;;;;;;;;;9.40;99.90;;;;;;4897912;29;19962;-79
2022/01/01 04:10:57;;;;;;;;;;;8.90;99.90;;;;;;5372615;23;19930;-79
2022/01/01 04:13:22;;;;;;;;;;;8.90;99.90;;;;;;4866467;29;19923;-79
2022/01/01 04:15:49;;;;;;;;;;;8.90;99.90;;;;;;4863391;29;19924;-79
2022/01/01 04:18:24;;;;;;;;;;;8.70;99.90;;;;;;4879238;29;19924;-79
2022/01/01 04:20:50;;;;;;;;;;;8.70;99.90;;;;;;4863074;29;20366;-79
2022/01/01 04:23:16;;;;;;;;;;;8.50;99.90;;;;;;4862882;29;20010;-80
2022/01/01 04:25:43;;;;;;;;;;;8.50;99.90;;;;;;4864090;29;19923;-79
2022/01/01 04:28:08;;;;;;;;;;;8.50;99.90;;;;;;4866094;29;20028;-79
2022/01/01 04:30:34;;;;;;;;;;;9.10;99.90;;;;;;4863201;29;20058;-79
2022/01/01 04:33:00;;;;;;;;;;;8.40;99.90;;;;;;4863851;29;19974;-79
2022/01/01 04:35:25;;;;;;;;;;;8.40;99.90;;;;;;4862675;29;20018;-79
2022/01/01 04:37:51;;;;;;;;;;;8.50;99.90;;;;;;4864084;29;19930;-79
2022/01/01 04:40:16;;;;;;;;;;;8.50;99.90;;;;;;4863333;29;19971;-79
2022/01/01 04:42:42;;;;;;;;;;;8.60;99.90;;;;;;4865032;29;19928;-80
2022/01/01 04:45:08;;;;;;;;;;;8.60;99.90;;;;;;4863616;29;19928;-79
2022/01/01 04:47:34;;;;;;;;;;;8.60;99.90;;;;;;4863911;29;19923;-80
2022/01/01 04:50:02;;;;;;;;;;;8.60;99.90;;;;;;4862863;29;19923;-79
2022/01/01 04:52:28;;;;;;;;;;;8.70;99.90;;;;;;4863546;29;19924;-79
2022/01/01 04:54:54;;;;;;;;;;;8.60;99.90;;;;;;4874242;29;19995;-79
2022/01/01 04:57:28;;;;;;;;;;;8.70;99.90;;;;;;4863005;29;20277;-80
2022/01/01 04:59:53;;;;;;;;;;;8.80;99.90;;;;;;4863413;29;19923;-79
2022/01/01 05:02:19;;;;;;;;;;;8.80;99.90;;;;;;4863093;29;20026;-79
2022/01/01 05:04:44;;;;;;;;;;;8.80;99.90;;;;;;4863151;29;19920;-79
2022/01/01 05:07:10;;;;;;;;;;;9.00;99.90;;;;;;4863137;29;19988;-80
2022/01/01 05:09:35;;;;;;;;;;;9.00;99.90;;;;;;4863106;29;19977;-79
2022/01/01 05:12:03;;;;;;;;;;;9.10;99.90;;;;;;4861988;29;19938;-79
2022/01/01 05:14:31;;;;;;;;;;;9.20;99.90;;;;;;4863485;29;20368;-79
2022/01/01 05:16:57;;;;;;;;;;;9.30;99.90;;;;;;4862679;29;20383;-79
2022/01/01 05:19:22;;;;;;;;;;;9.30;99.90;;;;;;4862199;29;20366;-79
2022/01/01 05:21:48;;;;;;;;;;;9.30;99.90;;;;;;4862730;29;19943;-80
2022/01/01 05:24:18;;;;;;;;;;;9.30;99.90;;;;;;5043846;23;19923;-80
2022/01/01 05:26:44;;;;;;;;;;;9.40;99.90;;;;;;4870605;29;19967;-79
2022/01/01 05:29:09;;;;;;;;;;;9.50;99.90;;;;;;4873136;29;19964;-80
2022/01/01 05:31:34;;;;;;;;;;;9.50;99.90;;;;;;4871103;29;19962;-79
2022/01/01 05:39:03;;;;;;;;;;;9.70;99.90;;;;;;4914592;29;19923;-78
2022/01/01 05:41:29;;;;;;;;;;;9.80;99.90;;;;;;4915197;29;19923;-79
2022/01/01 05:43:54;;;;;;;;;;;9.90;99.90;;;;;;4900068;29;19930;-79
2022/01/01 05:46:20;;;;;;;;;;;9.90;99.90;;;;;;4898608;29;19923;-83
2022/01/01 05:48:46;;;;;;;;;;;9.90;99.90;;;;;;4902107;29;19923;-82
2022/01/01 05:51:11;;;;;;;;;;;10.00;99.90;;;;;;4901308;29;19930;-83
2022/01/01 05:53:48;;;;;;;;;;;10.00;99.90;;;;;;4900374;29;19979;-79
2022/01/01 05:56:14;;;;;;;;;;;10.10;99.90;;;;;;4898993;29;19979;-78
2022/01/01 05:58:39;;;;;;;;;;;10.10;99.90;;;;;;4901831;29;19930;-78
2022/01/01 06:01:05;;;;;;;;;;;10.00;99.90;;;;;;4914641;29;19934;-79
2022/01/01 06:03:31;;;;;;;;;;;10.10;99.90;;;;;;4898784;29;19923;-79
2022/01/01 06:05:57;;;;;;;;;;;10.10;99.90;;;;;;4901875;29;19923;-79
2022/01/01 06:08:24;;;;;;;;;;;10.00;99.90;;;;;;4898801;29;19926;-78
2022/01/01 06:10:49;;;;;;;;;;;9.90;99.90;;;;;;4899171;29;19930;-78
2022/01/01 06:13:15;;;;;;;;;;;9.90;99.90;;;;;;4915145;29;19943;-79
2022/01/01 06:15:42;;;;;;;;;;;9.90;99.90;;;;;;4914804;29;19923;-79
2022/01/01 06:18:07;;;;;;;;;;;9.70;99.90;;;;;;4898690;29;19969;-79
2022/01/01 06:20:33;;;;;;;;;;;9.70;99.90;;;;;;4896681;29;20533;-79
2022/01/01 06:23:00;;;;;;;;;;;9.60;99.90;;;;;;4913883;29;19923;-79
2022/01/01 06:25:25;;;;;;;;;;;9.60;99.90;;;;;;4897682;29;19986;-79
2022/01/01 06:27:51;;;;;;;;;;;10.10;99.90;;;;;;4898406;29;20363;-79
2022/01/01 06:30:17;;;;;;;;;;;9.60;99.90;;;;;;4913536;29;19930;-79
2022/01/01 06:32:44;;;;;;;;;;;9.60;99.90;;;;;;4898477;29;19924;-78
2022/01/01 06:35:10;;;;;;;;;;;9.60;99.90;;;;;;4898115;29;20013;-78
2022/01/01 06:37:35;;;;;;;;;;;9.60;99.90;;;;;;4898847;29;20013;-78
2022/01/01 06:40:01;;;;;;;;;;;9.60;99.90;;;;;;4914447;29;19923;-78
2022/01/01 06:42:27;;;;;;;;;;;9.50;99.90;;;;;;4914024;29;19923;-78
2022/01/01 06:44:55;;;;;;;;;;;9.50;99.90;;;;;;4898235;29;19923;-79
2022/01/01 06:47:20;;;;;;;;;;;9.50;99.90;;;;;;4899172;29;19923;-79
2022/01/01 06:49:46;;;;;;;;;;;9.50;99.90;;;;;;4914126;29;19923;-79
2022/01/01 06:52:11;;;;;;;;;;;9.50;99.90;;;;;;4898905;29;19923;-79
2022/01/01 06:54:37;;;;;;;;;;;9.50;99.90;;;;;;4915716;29;19927;-80
2022/01/01 06:57:03;;;;;;;;;;;9.50;99.90;;;;;;4898441;29;19945;-80
2022/01/01 06:59:28;;;;;;;;;;;9.60;99.90;;;;;;4898582;29;19961;-80
2022/01/01 07:01:54;;;;;;;;;;;9.60;99.90;;;;;;4898816;29;19923;-80
2022/01/01 07:04:19;;;;;;;;;;;9.60;99.90;;;;;;4898289;29;20007;-80
2022/01/01 07:06:45;;;;;;;;;;;9.60;99.90;;;;;;4898785;29;19930;-79
2022/01/01 07:09:12;;;;;;;;;;;9.80;99.90;;;;;;4914580;29;19946;-79
2022/01/01 07:11:37;;;;;;;;;;;9.70;99.90;;;;;;4901528;29;19927;-79
2022/01/01 07:14:03;;;;;;;;;;;9.70;99.90;;;;;;4899011;29;19923;-79
2022/01/01 07:16:28;;;;;;;;;;;10.40;99.90;;;;;;4897112;29;19933;-80
2022/01/01 07:18:54;;;;;;;;;;;9.90;99.90;;;;;;4901681;29;19923;-80
2022/01/01 07:21:19;;;;;;;;;;;9.90;99.90;;;;;;4898307;29;20018;-79
2022/01/01 07:23:45;;;;;;;;;;;10.00;99.90;;;;;;4915260;29;20331;-80
2022/01/01 07:26:10;;;;;;;;;;;10.00;99.90;;;;;;4913653;29;19930;-79
2022/01/01 07:28:36;;;;;;;;;;;10.10;99.90;;;;;;4898211;29;19930;-77
2022/01/01 07:31:01;;;;;;;;;;;10.30;99.90;;;;;;4899118;29;19946;-79
2022/01/01 07:33:28;;;;;;;;;;;10.30;99.90;;;;;;4900178;29;20303;-78
2022/01/01 07:35:55;;;;;;;;;;;10.30;99.90;;;;;;4898345;29;19931;-79
2022/01/01 07:38:22;;;;;;;;;;;10.30;99.90;;;;;;4912980;29;19929;-79
2022/01/01 07:40:48;;;;;;;;;;;10.30;99.90;;;;;;4897957;29;19922;-80
2022/01/01 07:43:14;;;;;;;;;;;10.30;99.90;;;;;;4914342;29;20379;-79
2022/01/01 07:45:43;;;;;;;;;;;10.30;99.90;;;;;;4897876;29;20405;-79
2022/01/01 07:48:09;;;;;;;;;;;10.40;99.90;;;;;;4898485;29;19927;-79
2022/01/01 07:50:35;;;;;;;;;;;10.40;99.90;;;;;;4898344;29;19933;-79
2022/01/01 07:53:00;;;;;;;;;;;10.30;99.90;;;;;;4898183;29;19923;-80
2022/01/01 07:55:26;;;;;;;;;;;10.30;99.90;;;;;;4898480;29;20375;-80
2022/01/01 07:57:52;;;;;;;;;;;10.30;99.90;;;;;;4885802;29;19923;-79
2022/01/01 08:00:17;;;;;;;;;;;10.30;99.90;;;;;;4900793;29;19930;-79
2022/01/01 08:02:44;;;;;;;;;;;10.70;99.90;;;;;;4901321;29;20390;-79
2022/01/01 08:05:10;;;;;;;;;;;10.40;99.90;;;;;;4917739;29;19923;-79
2022/01/01 08:07:36;;;;;;;;;;;10.30;99.90;;;;;;4900326;29;19930;-79
2022/01/01 08:10:02;;;;;;;;;;;10.20;99.90;;;;;;4901814;29;19989;-79
2022/01/01 08:12:27;;;;;;;;;;;10.10;99.90;;;;;;4900873;29;19923;-78
2022/01/01 08:14:56;;;;;;;;;;;10.10;99.90;;;;;;4900801;29;19929;-79
2022/01/01 08:17:22;;;;;;;;;;;10.10;99.90;;;;;;4912979;29;20005;-78
2022/01/01 08:19:48;;;;;;;;;;;10.10;99.90;;;;;;4912155;29;20014;-79
2022/01/01 08:22:14;;;;;;;;;;;10.20;99.90;;;;;;4927044;29;20622;-78
2022/01/01 08:24:40;;;;;;;;;;;10.20;99.90;;;;;;4911149;29;19961;-79
2022/01/01 08:27:06;;;;;;;;;;;10.10;99.90;;;;;;4903753;29;20017;-79
2022/01/01 08:29:32;;;;;;;;;;;10.20;99.90;;;;;;4899548;29;20054;-79
2022/01/01 08:31:57;;;;;;;;;;;10.10;99.90;;;;;;4906597;29;19993;-78
2022/01/01 08:34:23;;;;;;;;;;;11.00;99.90;;;;;;4906835;29;19959;-78
2022/01/01 08:36:49;;;;;;;;;;;10.50;99.90;;;;;;4906343;29;19923;-78
2022/01/01 08:39:15;;;;;;;;;;;10.30;99.90;;;;;;4907883;29;19946;-78
2022/01/01 08:41:41;;;;;;;;;;;10.30;99.90;;;;;;4904887;29;19923;-78
2022/01/01 08:44:06;;;;;;;;;;;10.30;99.90;;;;;;4916337;29;20248;-78
2022/01/01 08:46:32;;;;;;;;;;;10.40;99.90;;;;;;4905347;29;19923;-78
2022/01/01 08:48:57;;;;;;;;;;;10.40;99.90;;;;;;4907862;29;19927;-80
2022/01/01 08:51:26;;;;;;;;;;;10.40;99.90;;;;;;4910522;29;19918;-77
2022/01/01 08:53:52;;;;;;;;;;;10.80;99.90;;;;;;4910157;29;19926;-78
2022/01/01 08:56:17;;;;;;;;;;;10.30;99.90;;;;;;4912565;29;19919;-77
2022/01/01 08:58:44;;;;;;;;;;;10.40;99.90;;;;;;4910755;29;20485;-78
2022/01/01 09:01:10;;;;;;;;;;;10.40;99.90;;;;;;4911588;29;19929;-79
2022/01/01 09:03:35;;;;;;;;;;;10.40;99.90;;;;;;4927729;29;19927;-78
2022/01/01 09:06:03;;;;;;;;;;;11.50;99.90;;;;;;4928131;29;19923;-78
2022/01/01 09:08:29;;;;;;;;;;;10.30;99.90;;;;;;4926621;29;20421;-78
2022/01/01 09:10:54;;;;;;;;;;;10.40;99.90;;;;;;4917768;29;19923;-79
2022/01/01 09:13:20;;;;;;;;;;;10.40;99.90;;;;;;4916585;29;20293;-80
2022/01/01 09:15:45;;;;;;;;;;;10.40;99.90;;;;;;4916191;29;19979;-80
2022/01/01 09:18:11;;;;;;;;;;;10.40;99.90;;;;;;4916387;29;19923;-77
2022/01/01 09:20:36;;;;;;;;;;;10.40;99.90;;;;;;4915297;29;20407;-79
2022/01/01 09:23:02;;;;;;;;;;;10.30;99.90;;;;;;4899577;29;19938;-78
2022/01/01 09:25:27;;;;;;;;;;;10.60;99.90;;;;;;4898680;29;19923;-78
2022/01/01 09:27:53;;;;;;;;;;;10.30;99.90;;;;;;4900085;29;20381;-80
2022/01/01 09:30:20;;;;;;;;;;;10.30;99.90;;;;;;4899421;29;19926;-82
2022/01/01 09:32:45;;;;;;;;;;;10.30;99.90;;;;;;4899446;29;20340;-80
2022/01/01 09:35:11;;;;;;;;;;;10.20;99.90;;;;;;4900283;29;20014;-80
2022/01/01 09:37:36;;;;;;;;;;;10.20;99.90;;;;;;4897569;29;19930;-75
2022/01/01 09:40:03;;;;;;;;;;;10.10;99.90;;;;;;4897977;29;20416;-74
2022/01/01 09:42:29;;;;;;;;;;;10.10;99.90;;;;;;4896174;29;20045;-77
2022/01/01 09:44:56;;;;;;;;;;;10.20;99.90;;;;;;4893063;29;19966;-82
2022/01/01 09:47:22;;;;;;;;;;;10.20;99.90;;;;;;4896059;29;19930;-77
2022/01/01 09:49:47;;;;;;;;;;;10.10;99.90;;;;;;4896987;29;19927;-81
2022/01/01 09:52:14;;;;;;;;;;;10.30;99.90;;;;;;4896781;29;19931;-81
2022/01/01 09:54:40;;;;;;;;;;;10.10;99.90;;;;;;4896394;29;20291;-79
2022/01/01 09:57:06;;;;;;;;;;;10.10;99.90;;;;;;4896014;29;19923;-78
2022/01/01 09:59:32;;;;;;;;;;;10.20;99.90;;;;;;4895206;29;19923;-83
2022/01/01 10:01:58;;;;;;;;;;;10.30;99.90;;;;;;4895813;29;19939;-85
2022/01/01 10:04:24;;;;;;;;;;;10.30;99.90;;;;;;4892442;29;19924;-88
2022/01/01 10:07:05;;;;;;;;;;;10.30;99.90;;;;;;4895400;29;19931;-80
2022/01/01 10:09:32;;;;;;;;;;;10.40;99.90;;;;;;4897627;29;19923;-92
2022/01/01 10:12:01;;;;;;;;;;;10.40;99.90;;;;;;4895534;29;20002;-86
2022/01/01 10:14:36;;;;;;;;;;;10.50;99.90;;;;;;4892714;29;19923;-81
2022/01/01 10:17:15;;;;;;;;;;;10.50;99.90;;;;;;4899648;29;19970;-82
2022/01/01 10:19:41;;;;;;;;;;;10.50;99.90;;;;;;4895323;29;19956;-82
2022/01/01 10:22:11;;;;;;;;;;;10.60;99.90;;;;;;4895203;29;19923;-83
2022/01/01 10:27:44;;;;;;;;;;;10.70;99.90;;;;;;4872371;29;19924;-84
2022/01/01 10:30:16;;;;;;;;;;;10.80;99.90;;;;;;4895529;29;19930;-82
2022/01/01 10:37:53;;;;;;;;;;;11.30;99.90;;;;;;5709181;23;19955;-82
2022/01/01 10:44:21;;;;;;;;;;;11.40;99.90;;;;;;4890782;29;19995;-81
2022/01/01 10:46:49;;;;;;;;;;;11.20;99.90;;;;;;4894454;29;19919;-81
2022/01/01 10:50:02;;;;;;;;;;;11.40;99.90;;;;;;4894068;29;19923;-82
2022/01/01 10:52:29;;;;;;;;;;;11.30;99.90;;;;;;4912014;29;20256;-80
2022/01/01 10:54:58;;;;;;;;;;;11.40;99.90;;;;;;4895782;29;19919;-81
2022/01/01 10:57:25;;;;;;;;;;;11.50;99.90;;;;;;4894597;29;19948;-80
2022/01/01 11:07:39;;;;;;;;;;;11.50;99.90;;;;;;5168343;23;19964;-81
2022/01/01 11:10:05;;;;;;;;;;;11.50;99.90;;;;;;4865708;29;19931;-81
2022/01/01 11:12:30;;;;;;;;;;;11.60;99.90;;;;;;4867946;29;19928;-84
2022/01/01 11:14:56;;;;;;;;;;;11.60;99.90;;;;;;4868742;29;19955;-81
2022/01/01 11:17:23;;;;;;;;;;;11.70;99.90;;;;;;4866602;29;19928;-84
2022/01/01 11:20:00;;;;;;;;;;;12.00;99.90;;;;;;4870956;29;20323;-94
2022/01/01 11:22:29;;;;;;;;;;;11.90;99.90;;;;;;4866852;29;19928;-89
2022/01/01 11:24:54;;;;;;;;;;;11.90;99.90;;;;;;4865490;29;19976;-89
2022/01/01 11:27:20;;;;;;;;;;;11.90;99.90;;;;;;4866106;29;20081;-87
2022/01/01 11:29:50;;;;;;;;;;;11.80;99.90;;;;;;4871554;29;19924;-86
2022/01/01 11:32:18;;;;;;;;;;;11.70;99.90;;;;;;4875390;29;19959;-90
2022/01/01 11:34:44;;;;;;;;;;;12.30;99.90;;;;;;4868966;29;20364;-92
2022/01/01 11:37:12;;;;;;;;;;;11.90;99.90;;;;;;4870504;29;19928;-83
2022/01/01 11:39:37;;;;;;;;;;;11.60;99.90;;;;;;4858444;29;20424;-92
2022/01/01 11:42:13;;;;;;;;;;;11.50;99.90;;;;;;4865591;29;19928;-85
2022/01/01 11:44:48;;;;;;;;;;;11.50;99.90;;;;;;4869150;29;19928;-88
2022/01/01 11:47:15;;;;;;;;;;;10.60;99.90;;;;;;4876521;29;19930;-95
2022/01/01 11:49:44;;;;;;;;;;;11.50;99.90;;;;;;4872377;29;19931;-90
2022/01/01 11:52:10;;;;;;;;;;;11.50;99.90;;;;;;4869338;29;20089;-85
2022/01/01 11:54:40;;;;;;;;;;;11.50;99.90;;;;;;4870150;29;20348;-85
2022/01/01 11:57:10;;;;;;;;;;;11.50;99.90;;;;;;4867211;29;19924;-85
2022/01/01 11:59:40;;;;;;;;;;;11.50;99.90;;;;;;4863890;29;20300;-84
2022/01/01 12:02:18;;;;;;;;;;;11.50;99.90;;;;;;4869174;29;19927;-86
2022/01/01 12:04:49;;;;;;;;;;;11.50;99.90;;;;;;4871841;29;19966;-86
2022/01/01 12:07:18;;;;;;;;;;;11.50;99.90;;;;;;4868800;29;19927;-86
2022/01/01 12:10:02;;;;;;;;;;;11.40;99.90;;;;;;4869241;29;19924;-86
2022/01/01 12:12:45;;;;;;;;;;;11.40;99.90;;;;;;4864804;29;19924;-86
2022/01/01 12:15:20;;;;;;;;;;;11.40;99.90;;;;;;4861973;29;19964;-86
2022/01/01 12:17:57;;;;;;;;;;;11.30;99.90;;;;;;4868257;29;19919;-85
2022/01/01 12:20:24;;;;;;;;;;;11.30;99.90;;;;;;4871109;29;20325;-84
2022/01/01 12:22:50;;;;;;;;;;;11.40;99.90;;;;;;4853894;29;19927;-86
2022/01/01 12:25:16;;;;;;;;;;;11.40;99.90;;;;;;4872149;29;19931;-86
2022/01/01 12:27:47;;;;;;;;;;;11.40;99.90;;;;;;4869279;29;19931;-86
2022/01/01 12:30:14;;;;;;;;;;;11.50;99.90;;;;;;4869815;29;19923;-85
2022/01/01 12:32:44;;;;;;;;;;;11.60;99.90;;;;;;4871001;29;19924;-85
2022/01/01 12:35:29;;;;;;;;;;;11.70;99.90;;;;;;4869208;29;19928;-85
2022/01/01 12:38:05;;;;;;;;;;;11.70;99.90;;;;;;4869432;29;19967;-84
2022/01/01 12:40:31;;;;;;;;;;;11.70;99.90;;;;;;4873993;29;19928;-90
2022/01/01 12:43:06;;;;;;;;;;;11.60;99.90;;;;;;4868842;29;19932;-86
2022/01/01 12:45:32;;;;;;;;;;;11.60;99.90;;;;;;4869674;29;19923;-85
2022/01/01 12:47:59;;;;;;;;;;;11.70;99.90;;;;;;4855576;29;19932;-88
2022/01/01 12:50:25;;;;;;;;;;;11.70;99.90;;;;;;4865149;29;20304;-81
2022/01/01 12:52:53;;;;;;;;;;;12.00;99.90;;;;;;4872587;29;19924;-88
2022/01/01 12:55:22;;;;;;;;;;;12.40;99.90;;;;;;4867321;29;19975;-81
2022/01/01 12:57:48;;;;;;;;;;;12.70;99.90;;;;;;4868832;29;19925;-88
2022/01/01 13:00:21;;;;;;;;;;;12.90;99.90;;;;;;4871097;29;19977;-87
2022/01/01 13:02:46;;;;;;;;;;;12.90;99.90;;;;;;4871197;29;19924;-87
2022/01/01 13:05:15;;;;;;;;;;;12.70;99.90;;;;;;4869948;29;20065;-84
2022/01/01 13:07:40;;;;;;;;;;;12.60;99.90;;;;;;4870022;29;20330;-81
2022/01/01 13:10:06;;;;;;;;;;;12.50;99.90;;;;;;4852896;29;19979;-86
2022/01/01 13:12:35;;;;;;;;;;;12.40;99.90;;;;;;4871801;29;19968;-85
2022/01/01 13:15:02;;;;;;;;;;;12.40;99.90;;;;;;4867920;29;19927;-86
2022/01/01 13:17:27;;;;;;;;;;;12.30;99.90;;;;;;4867393;29;20423;-85
2022/01/01 13:19:56;;;;;;;;;;;12.20;99.90;;;;;;4871958;29;19971;-82
2022/01/01 13:22:28;;;;;;;;;;;12.10;99.90;;;;;;4869686;29;19924;-82
2022/01/01 13:24:55;;;;;;;;;;;12.20;99.90;;;;;;4871219;29;19976;-85
2022/01/01 13:27:25;;;;;;;;;;;12.10;99.90;;;;;;4870951;29;19928;-87
2022/01/01 13:29:51;;;;;;;;;;;12.30;99.90;;;;;;4868113;29;20292;-82
2022/01/01 13:32:16;;;;;;;;;;;12.30;99.90;;;;;;4871665;29;19920;-84
2022/01/01 13:34:47;;;;;;;;;;;12.30;99.90;;;;;;4875291;29;20020;-94
2022/01/01 13:37:18;;;;;;;;;;;12.30;99.90;;;;;;4872511;29;20337;-82
2022/01/01 13:39:44;;;;;;;;;;;12.20;99.90;;;;;;4868441;29;20332;-85
2022/01/01 13:42:33;;;;;;;;;;;12.30;99.90;;;;;;4870787;29;19927;-81
2022/01/01 13:45:03;;;;;;;;;;;12.20;99.90;;;;;;4865755;29;20304;-86
2022/01/01 13:47:31;;;;;;;;;;;12.20;99.90;;;;;;4873111;29;19938;-82
2022/01/01 13:49:58;;;;;;;;;;;12.10;99.90;;;;;;4872475;29;19931;-79
2022/01/01 13:52:28;;;;;;;;;;;12.10;99.90;;;;;;4874202;29;20364;-83
2022/01/01 13:54:55;;;;;;;;;;;12.10;99.90;;;;;;4875058;29;20348;-84
2022/01/01 13:57:21;;;;;;;;;;;12.10;99.90;;;;;;4870216;29;20391;-80
2022/01/01 13:59:51;;;;;;;;;;;12.10;99.90;;;;;;4872176;29;19928;-78
2022/01/01 14:02:17;;;;;;;;;;;12.10;99.90;;;;;;4855871;29;20384;-80
2022/01/01 14:04:44;;;;;;;;;;;12.10;99.90;;;;;;4873020;29;20014;-81
2022/01/01 14:07:13;;;;;;;;;;;12.40;99.90;;;;;;4867271;29;20006;-78
2022/01/01 14:09:57;;;;;;;;;;;12.20;99.90;;;;;;4869982;29;19959;-81
2022/01/01 14:12:24;;;;;;;;;;;12.10;99.90;;;;;;4869808;29;20294;-92
2022/01/01 14:14:50;;;;;;;;;;;12.10;99.90;;;;;;4871733;29;20809;-83
2022/01/01 14:17:15;;;;;;;;;;;12.10;99.90;;;;;;4871462;29;19920;-88
2022/01/01 14:19:41;;;;;;;;;;;12.10;99.90;;;;;;4875965;29;19924;-89
2022/01/01 14:22:13;;;;;;;;;;;12.10;99.90;;;;;;4864311;29;20292;-82
2022/01/01 14:24:51;;;;;;;;;;;12.10;99.90;;;;;;4873895;29;19927;-88
2022/01/01 14:27:17;;;;;;;;;;;12.00;99.90;;;;;;4846181;29;19928;-84
2022/01/01 14:29:43;;;;;;;;;;;11.90;99.90;;;;;;4868065;29;19924;-80
2022/01/01 14:32:13;;;;;;;;;;;11.80;99.90;;;;;;4866541;29;19924;-79
2022/01/01 14:34:41;;;;;;;;;;;12.00;99.90;;;;;;4869492;29;19923;-84
2022/01/01 14:37:07;;;;;;;;;;;12.20;99.90;;;;;;4868125;29;20450;-84
2022/01/01 14:39:32;;;;;;;;;;;11.90;99.90;;;;;;4839361;29;20019;-89
2022/01/01 14:41:58;;;;;;;;;;;12.00;99.90;;;;;;4867130;29;19924;-86
2022/01/01 14:44:23;;;;;;;;;;;11.80;99.90;;;;;;4869118;29;20421;-85
2022/01/01 14:46:52;;;;;;;;;;;11.80;99.90;;;;;;4865336;29;19963;-90
2022/01/01 14:49:24;;;;;;;;;;;12.80;99.90;;;;;;4864890;29;20006;-84
2022/01/01 14:51:55;;;;;;;;;;;11.80;99.90;;;;;;4854985;29;19928;-86
2022/01/01 14:54:30;;;;;;;;;;;12.20;99.90;;;;;;4870156;29;19967;-76
2022/01/01 14:57:01;;;;;;;;;;;11.90;99.90;;;;;;4868765;29;19924;-82
2022/01/01 14:59:34;;;;;;;;;;;11.90;99.90;;;;;;4850627;29;19928;-77
2022/01/01 15:02:00;;;;;;;;;;;11.90;99.90;;;;;;4870053;29;19924;-82
2022/01/01 15:04:27;;;;;;;;;;;11.90;99.90;;;;;;4850407;29;19943;-85
2022/01/01 15:06:53;;;;;;;;;;;11.80;99.90;;;;;;4869994;29;19927;-84
2022/01/01 15:09:19;;;;;;;;;;;11.70;99.90;;;;;;4874941;29;20369;-90
2022/01/01 15:11:45;;;;;;;;;;;11.70;99.90;;;;;;4869764;29;19982;-77
2022/01/01 15:14:12;;;;;;;;;;;11.70;99.90;;;;;;4874260;29;19928;-80
2022/01/01 15:16:47;;;;;;;;;;;11.70;99.90;;;;;;4870540;29;19934;-84
2022/01/01 15:19:12;;;;;;;;;;;11.70;99.90;;;;;;4870252;29;19930;-79
2022/01/01 15:21:44;;;;;;;;;;;11.70;99.90;;;;;;4870397;29;20415;-77